Time;durP1;ratioP1;P1;durP2;ratioP2;P2;SDS_P1;SDS_P2;PMS_P1;PMS_P2;Temp;Humidity;BMP_temperature;BMP_pressure;BME280_temperature;BME280_humidity;BME280_pressure;Samples;Min_cycle;Max_cycle;Signal;HPM_P1;HPM_P2
2023/05/17 00:02:18;;;;;;;19.38;5.22;;;;;;;11.92;67.17;102164.22;7391697;19;20035;-49
2023/05/17 00:04:45;;;;;;;19.80;5.07;;;;;;;11.96;67.05;102163.09;7391181;19;20051;-51
2023/05/17 00:07:12;;;;;;;18.80;5.25;;;;;;;11.91;66.87;102159.84;7392250;19;20010;-52
2023/05/17 00:09:39;;;;;;;15.30;4.90;;;;;;;11.84;66.87;102172.59;7391247;19;20335;-50
2023/05/17 00:12:06;;;;;;;18.80;5.00;;;;;;;11.85;66.64;102173.47;7389752;19;20516;-48
2023/05/17 00:14:34;;;;;;;19.73;4.88;;;;;;;11.82;67.05;102182.41;7391897;19;20047;-50
2023/05/17 00:17:01;;;;;;;16.23;4.57;;;;;;;11.79;66.99;102174.63;7391922;19;20011;-51
2023/05/17 00:19:28;;;;;;;18.02;4.80;;;;;;;11.74;66.92;102184.63;7390547;19;20385;-46
2023/05/17 00:21:55;;;;;;;17.13;5.10;;;;;;;11.73;67.02;102182.94;7389404;19;20022;-46
2023/05/17 00:24:23;;;;;;;16.90;4.93;;;;;;;11.70;66.69;102191.91;7390985;19;20019;-51
2023/05/17 00:26:50;;;;;;;19.95;4.72;;;;;;;11.70;66.08;102191.06;7392045;19;20381;-47
2023/05/17 00:29:17;;;;;;;16.08;4.53;;;;;;;11.62;66.15;102182.66;7391721;19;20404;-49
2023/05/17 00:31:44;;;;;;;15.45;4.32;;;;;;;11.67;65.25;102183.25;7391070;19;20506;-48
2023/05/17 00:34:11;;;;;;;16.83;4.25;;;;;;;11.56;65.36;102181.22;7391051;19;20042;-49
2023/05/17 00:36:38;;;;;;;15.70;4.55;;;;;;;11.46;65.27;102185.31;7391233;19;20393;-48
2023/05/17 00:39:05;;;;;;;17.90;4.65;;;;;;;11.52;64.96;102179.66;7390187;19;20485;-50
2023/05/17 00:41:32;;;;;;;13.80;3.60;;;;;;;11.51;65.01;102182.41;7391262;19;20090;-50
2023/05/17 00:43:59;;;;;;;19.73;4.35;;;;;;;11.50;64.88;102178.03;7391500;19;20034;-46
2023/05/17 00:46:26;;;;;;;20.10;4.70;;;;;;;11.46;64.42;102183.50;7390385;19;20014;-48
2023/05/17 00:48:55;;;;;;;15.48;3.70;;;;;;;11.39;63.76;102187.44;7390152;19;20021;-46
2023/05/17 00:51:22;;;;;;;19.90;4.60;;;;;;;11.35;63.14;102179.72;7390856;19;20050;-49
2023/05/17 00:53:49;;;;;;;16.45;3.72;;;;;;;11.36;62.61;102176.97;7389371;19;20083;-45
2023/05/17 00:56:16;;;;;;;12.95;3.53;;;;;;;11.34;62.52;102180.69;7393529;19;20014;-47
2023/05/17 00:58:44;;;;;;;17.83;3.95;;;;;;;11.30;62.32;102182.63;7389966;19;20524;-50
2023/05/17 01:01:11;;;;;;;19.02;4.00;;;;;;;11.30;61.70;102179.13;7388908;19;20408;-48
2023/05/17 01:03:38;;;;;;;17.67;3.88;;;;;;;11.27;61.73;102185.44;7388636;19;20015;-46
2023/05/17 01:06:05;;;;;;;15.75;3.70;;;;;;;11.24;61.27;102190.91;7389350;19;20014;-44
2023/05/17 01:08:33;;;;;;;13.75;3.45;;;;;;;11.28;61.30;102195.09;7390420;19;20069;-48
2023/05/17 01:11:34;;;;;;;17.02;3.60;;;;;;;11.26;60.93;102198.78;7390206;19;20022;-47
2023/05/17 01:14:06;;;;;;;13.25;3.53;;;;;;;11.26;61.35;102202.31;7390247;19;20018;-48
2023/05/17 01:16:43;;;;;;;16.65;3.88;;;;;;;11.21;60.86;102197.22;7389591;19;20014;-47
2023/05/17 01:19:43;;;;;;;18.40;4.00;;;;;;;11.21;60.45;102194.56;7389049;19;20043;-46
2023/05/17 01:22:16;;;;;;;18.77;3.70;;;;;;;11.16;60.91;102195.75;7389818;19;20074;-47
2023/05/17 01:25:22;;;;;;;13.07;3.20;;;;;;;11.25;60.55;102205.00;7389067;19;20019;-47
2023/05/17 01:27:51;;;;;;;18.40;4.22;;;;;;;11.14;61.16;102203.81;7389831;19;20035;-45
2023/05/17 01:30:19;;;;;;;20.83;5.00;;;;;;;11.17;61.32;102205.41;7387344;19;20488;-48
2023/05/17 01:32:46;;;;;;;19.40;4.05;;;;;;;11.15;61.43;102202.00;7390660;19;20094;-48
2023/05/17 01:35:15;;;;;;;16.70;4.32;;;;;;;11.10;61.78;102204.88;7396487;19;20029;-47
2023/05/17 01:37:42;;;;;;;18.98;4.15;;;;;;;11.05;61.88;102204.28;7396998;19;20023;-49
2023/05/17 01:40:09;;;;;;;18.92;4.45;;;;;;;11.06;61.96;102205.13;7394798;19;20014;-46
2023/05/17 01:42:40;;;;;;;18.85;4.20;;;;;;;11.06;62.33;102205.13;7396164;19;20043;-51
2023/05/17 01:45:22;;;;;;;21.00;4.60;;;;;;;11.07;62.37;102213.03;7396149;19;20023;-47
2023/05/17 01:48:19;;;;;;;22.13;4.88;;;;;;;11.05;62.62;102214.03;7395618;19;20085;-46
2023/05/17 01:50:53;;;;;;;17.83;4.38;;;;;;;11.01;62.96;102220.44;7395350;19;20028;-47
2023/05/17 01:53:38;;;;;;;18.25;4.53;;;;;;;11.01;63.17;102218.63;7395951;19;20393;-45
2023/05/17 01:56:13;;;;;;;19.92;4.30;;;;;;;11.01;62.95;102225.72;7396688;19;20021;-48
2023/05/17 01:58:46;;;;;;;17.67;4.80;;;;;;;11.00;63.07;102222.22;7392953;19;20026;-46
2023/05/17 02:01:15;;;;;;;19.75;4.47;;;;;;;10.98;63.31;102226.72;7394590;19;20019;-45
2023/05/17 02:03:46;;;;;;;23.00;4.55;;;;;;;10.94;63.48;102233.97;7396313;19;20018;-44
2023/05/17 02:06:14;;;;;;;18.52;3.97;;;;;;;10.91;63.35;102230.63;7394234;19;20029;-46
2023/05/17 02:08:42;;;;;;;21.90;4.55;;;;;;;10.94;63.45;102233.97;7394118;19;20538;-49
2023/05/17 02:11:09;;;;;;;18.65;4.68;;;;;;;10.91;63.59;102230.63;7395995;19;20038;-45
2023/05/17 02:13:36;;;;;;;21.33;4.60;;;;;;;10.92;63.64;102235.88;7395137;19;20015;-46
2023/05/17 02:16:04;;;;;;;16.60;4.03;;;;;;;10.93;63.60;102232.28;7394245;19;20035;-50
2023/05/17 02:18:34;;;;;;;16.80;4.53;;;;;;;10.93;63.83;102245.53;7393298;19;20047;-46
2023/05/17 02:21:01;;;;;;;19.58;4.03;;;;;;;10.94;63.58;102251.69;7392020;19;20039;-47
2023/05/17 02:23:28;;;;;;;15.63;4.45;;;;;;;10.93;63.38;102242.03;7395365;19;20021;-45
2023/05/17 02:25:55;;;;;;;18.80;3.92;;;;;;;11.03;63.12;102245.03;7394957;19;20018;-46
2023/05/17 02:28:23;;;;;;;20.40;4.20;;;;;;;10.90;63.54;102253.63;7394107;19;20019;-50
2023/05/17 02:30:51;;;;;;;17.58;3.95;;;;;;;10.86;63.51;102248.56;7394656;19;20014;-45
2023/05/17 02:33:18;;;;;;;16.15;3.38;;;;;;;10.79;63.80;102260.41;7393805;19;20533;-45
2023/05/17 02:35:48;;;;;;;16.50;3.70;;;;;;;10.81;63.84;102254.13;7394998;19;20498;-47
2023/05/17 02:38:15;;;;;;;17.15;4.32;;;;;;;10.79;64.13;102252.47;7394506;19;20021;-46
2023/05/17 02:40:42;;;;;;;15.45;3.88;;;;;;;10.82;63.89;102254.97;7393326;19;20367;-48
2023/05/17 02:43:09;;;;;;;18.52;4.35;;;;;;;10.82;63.77;102260.25;7395223;19;20530;-46
2023/05/17 02:45:36;;;;;;;14.65;3.78;;;;;;;10.78;63.55;102259.56;7390634;19;20039;-45
2023/05/17 02:48:04;;;;;;;18.58;3.95;;;;;;;10.81;63.38;102263.84;7393668;19;20037;-47
2023/05/17 02:50:31;;;;;;;16.00;3.53;;;;;;;10.80;63.36;102268.31;7390127;19;20039;-46
2023/05/17 02:52:59;;;;;;;14.27;3.20;;;;;;;10.76;63.43;102266.75;7394445;19;20095;-45
2023/05/17 02:55:26;;;;;;;14.75;3.13;;;;;;;10.74;63.20;102274.75;7394965;19;20023;-45
2023/05/17 02:57:53;;;;;;;16.73;3.33;;;;;;;10.68;63.45;102269.78;7393128;19;20410;-46
2023/05/17 03:00:21;;;;;;;14.52;3.75;;;;;;;10.65;63.35;102269.94;7391231;19;20043;-46
2023/05/17 03:02:48;;;;;;;17.88;3.60;;;;;;;10.66;63.01;102273.44;7393195;19;20018;-48
2023/05/17 03:05:15;;;;;;;16.33;3.45;;;;;;;10.63;62.92;102276.22;7393929;19;20086;-45
2023/05/17 03:07:42;;;;;;;15.40;3.17;;;;;;;10.52;62.68;102287.34;7392780;19;20022;-45
2023/05/17 03:10:09;;;;;;;12.40;3.17;;;;;;;10.52;62.80;102287.34;7393572;19;20082;-47
2023/05/17 03:12:36;;;;;;;14.95;3.00;;;;;;;10.57;62.56;102280.03;7392615;19;20133;-45
2023/05/17 03:15:05;;;;;;;13.60;2.95;;;;;;;10.56;62.23;102290.69;7393432;19;20495;-48
2023/05/17 03:17:32;;;;;;;18.00;3.50;;;;;;;10.59;62.09;102293.19;7393800;19;20059;-45
2023/05/17 03:19:59;;;;;;;11.55;2.65;;;;;;;10.56;61.41;102285.41;7392936;19;20018;-46
2023/05/17 03:22:27;;;;;;;13.23;2.63;;;;;;;10.57;61.07;102298.59;7394105;19;20015;-46
2023/05/17 03:24:54;;;;;;;12.30;2.92;;;;;;;10.57;60.97;102303.00;7393262;19;20018;-47
2023/05/17 03:27:21;;;;;;;12.43;2.85;;;;;;;10.53;60.51;102301.44;7393498;19;20347;-46
2023/05/17 03:29:48;;;;;;;15.10;3.00;;;;;;;10.45;60.25;102302.69;7393606;19;20022;-46
2023/05/17 03:32:16;;;;;;;11.60;2.70;;;;;;;10.40;60.34;102311.78;7392381;19;20038;-47
2023/05/17 03:34:43;;;;;;;12.55;2.50;;;;;;;10.44;59.57;102314.19;7393320;19;20029;-45
2023/05/17 03:37:10;;;;;;;14.50;2.90;;;;;;;10.48;59.35;102310.47;7391934;19;20026;-46
2023/05/17 03:39:37;;;;;;;13.13;2.78;;;;;;;10.52;59.32;102315.63;7391222;19;20074;-45
2023/05/17 03:42:05;;;;;;;12.23;3.08;;;;;;;10.53;59.02;102314.69;7391301;19;20389;-45
2023/05/17 03:44:32;;;;;;;17.15;2.63;;;;;;;10.57;58.63;102318.91;7391766;19;20026;-45
2023/05/17 03:46:59;;;;;;;12.52;2.38;;;;;;;10.64;58.41;102326.47;7391366;19;20014;-46
2023/05/17 03:49:26;;;;;;;12.63;2.67;;;;;;;10.65;57.89;102336.16;7390480;19;20010;-47
2023/05/17 03:51:53;;;;;;;12.00;2.70;;;;;;;10.65;57.90;102338.81;7393524;19;20471;-47
2023/05/17 03:54:20;;;;;;;13.30;2.83;;;;;;;10.61;57.72;102341.69;7392295;19;20010;-46
2023/05/17 03:56:49;;;;;;;12.02;2.45;;;;;;;10.66;57.61;102347.63;7391718;19;20014;-47
2023/05/17 03:59:16;;;;;;;12.30;2.60;;;;;;;10.68;57.47;102346.63;7389101;19;20019;-48
2023/05/17 04:01:44;;;;;;;15.57;2.80;;;;;;;10.71;57.42;102341.13;7391243;19;20086;-47
2023/05/17 04:04:11;;;;;;;15.20;2.90;;;;;;;10.71;57.06;102343.78;7390704;19;20491;-47
2023/05/17 04:06:39;;;;;;;18.83;3.28;;;;;;;10.65;57.35;102349.41;7390478;19;20031;-47
2023/05/17 04:09:09;;;;;;;13.45;2.97;;;;;;;10.68;57.36;102353.69;7390650;19;20018;-48
2023/05/17 04:11:37;;;;;;;14.07;2.65;;;;;;;10.77;57.23;102358.56;7392719;19;20039;-47
2023/05/17 04:14:04;;;;;;;12.10;2.47;;;;;;;10.84;56.85;102362.63;7392227;19;20018;-49
2023/05/17 04:16:32;;;;;;;11.52;2.60;;;;;;;10.83;57.16;102362.66;7391612;19;20018;-49
2023/05/17 04:18:59;;;;;;;11.10;2.60;;;;;;;10.88;57.09;102364.19;7388172;19;20031;-51
2023/05/17 04:21:27;;;;;;;14.52;2.50;;;;;;;10.89;57.22;102362.38;7390816;19;20498;-47
2023/05/17 04:23:54;;;;;;;12.68;2.35;;;;;;;10.92;56.92;102364.91;7391873;19;20039;-48
2023/05/17 04:26:23;;;;;;;11.90;2.20;;;;;;;10.94;56.80;102370.97;7391179;19;20030;-48
2023/05/17 04:28:51;;;;;;;15.93;3.08;;;;;;;10.88;57.07;102360.69;7388561;19;20015;-46
2023/05/17 04:31:18;;;;;;;14.98;2.50;;;;;;;10.86;57.16;102357.22;7390075;19;20047;-47
2023/05/17 04:33:45;;;;;;;13.18;2.60;;;;;;;10.75;57.34;102360.41;7391566;19;20014;-48
2023/05/17 04:36:13;;;;;;;14.43;2.63;;;;;;;10.68;57.12;102373.09;7390519;19;20072;-49
2023/05/17 04:38:40;;;;;;;11.55;2.60;;;;;;;10.62;57.10;102372.53;7390176;19;20085;-47
2023/05/17 04:41:08;;;;;;;10.25;2.30;;;;;;;10.64;57.21;102375.94;7390958;19;20050;-45
2023/05/17 04:43:35;;;;;;;12.13;2.67;;;;;;;10.59;57.02;102377.97;7390020;19;20018;-47
2023/05/17 04:46:04;;;;;;;11.23;2.72;;;;;;;10.68;56.76;102385.47;7391559;19;20045;-45
2023/05/17 04:48:32;;;;;;;11.35;2.63;;;;;;;10.65;55.93;102390.94;7389063;19;20389;-46
2023/05/17 04:51:02;;;;;;;8.77;2.30;;;;;;;10.68;55.64;102396.06;7391816;19;20092;-47
2023/05/17 04:53:31;;;;;;;12.55;2.65;;;;;;;10.71;55.25;102396.78;7391341;19;20550;-46
2023/05/17 04:55:58;;;;;;;13.55;2.35;;;;;;;10.76;55.20;102398.34;7391006;19;20019;-46
2023/05/17 04:58:25;;;;;;;10.07;2.50;;;;;;;10.83;54.61;102402.44;7389186;19;20324;-46
2023/05/17 05:00:52;;;;;;;9.88;1.92;;;;;;;10.82;54.41;102404.22;7389105;19;20018;-47
2023/05/17 05:03:21;;;;;;;11.35;2.47;;;;;;;10.86;54.06;102404.94;7386636;19;20014;-47
2023/05/17 05:05:49;;;;;;;14.25;2.40;;;;;;;10.91;54.01;102408.22;7390533;19;20015;-45
2023/05/17 05:08:16;;;;;;;11.32;2.30;;;;;;;10.94;53.74;102421.31;7387030;19;20019;-45
2023/05/17 05:10:45;;;;;;;13.20;2.65;;;;;;;10.95;53.61;102415.97;7388037;19;20483;-45
2023/05/17 05:13:12;;;;;;;13.85;2.53;;;;;;;10.96;53.46;102422.97;7390845;19;20018;-45
2023/05/17 05:15:39;;;;;;;12.95;2.25;;;;;;;10.96;53.39;102433.56;7388949;19;20014;-45
2023/05/17 05:18:07;;;;;;;11.63;2.60;;;;;;;11.01;53.43;102437.78;7389277;19;20043;-45
2023/05/17 05:20:34;;;;;;;13.25;2.60;;;;;;;11.02;53.40;102439.50;7387439;19;20019;-45
2023/05/17 05:23:04;;;;;;;11.45;2.47;;;;;;;11.00;53.47;102444.91;7389987;19;20029;-45
2023/05/17 05:25:32;;;;;;;11.68;2.25;;;;;;;11.00;53.86;102444.03;7388113;19;20015;-46
2023/05/17 05:27:59;;;;;;;12.13;2.75;;;;;;;11.02;53.53;102440.34;7389337;19;20018;-44
2023/05/17 05:30:26;;;;;;;14.13;2.60;;;;;;;11.07;53.11;102448.13;7388856;19;20010;-45
2023/05/17 05:32:53;;;;;;;12.52;2.40;;;;;;;11.03;52.76;102457.13;7388558;19;20011;-45
2023/05/17 05:35:27;;;;;;;9.88;2.42;;;;;;;11.14;52.59;102455.69;7388178;19;20025;-44
2023/05/17 05:37:56;;;;;;;14.43;2.80;;;;;;;11.13;52.49;102461.91;7389691;19;20024;-45
2023/05/17 05:40:24;;;;;;;13.55;2.67;;;;;;;11.18;52.39;102464.34;7388694;19;20022;-45
2023/05/17 05:42:52;;;;;;;13.93;2.45;;;;;;;11.26;51.87;102470.16;7387912;19;20031;-46
2023/05/17 05:45:20;;;;;;;13.07;2.50;;;;;;;11.21;51.73;102469.50;7387698;19;20025;-45
2023/05/17 05:47:47;;;;;;;11.55;2.30;;;;;;;11.21;51.43;102474.78;7388987;19;20015;-47
2023/05/17 05:50:15;;;;;;;14.10;2.75;;;;;;;11.19;51.41;102479.34;7387175;19;20021;-47
2023/05/17 05:52:45;;;;;;;14.73;2.63;;;;;;;11.22;51.54;102471.22;7388416;19;20387;-47
2023/05/17 05:55:13;;;;;;;11.70;2.47;;;;;;;11.35;51.12;102492.69;7388439;19;20021;-48
2023/05/17 05:57:40;;;;;;;10.20;2.70;;;;;;;11.29;51.36;102509.75;7388996;19;20022;-47
2023/05/17 06:00:07;;;;;;;15.25;2.70;;;;;;;11.22;51.64;102503.91;7386410;19;20045;-46
2023/05/17 06:02:37;;;;;;;12.57;2.92;;;;;;;11.32;51.63;102504.31;7386874;19;20487;-47
2023/05/17 06:05:05;;;;;;;12.93;2.70;;;;;;;11.31;51.68;102505.25;7388362;19;20040;-46
2023/05/17 06:07:32;;;;;;;15.82;3.05;;;;;;;11.18;51.81;102505.00;7387087;19;20018;-45
2023/05/17 06:10:01;;;;;;;12.30;2.80;;;;;;;11.11;52.48;102510.66;7386208;19;20018;-46
2023/05/17 06:12:28;;;;;;;12.10;2.95;;;;;;;11.06;51.75;102518.81;7387405;19;20504;-45
2023/05/17 06:14:55;;;;;;;15.00;2.75;;;;;;;11.00;51.10;102528.88;7388008;19;20022;-45
2023/05/17 06:17:23;;;;;;;12.30;3.13;;;;;;;10.98;50.71;102526.28;7388048;19;20014;-48
2023/05/17 06:19:51;;;;;;;10.48;2.00;;;;;;;11.04;50.22;102523.34;7389863;19;20026;-45
2023/05/17 06:22:18;;;;;;;11.18;2.40;;;;;;;11.10;49.27;102524.84;7393934;19;20015;-45
2023/05/17 06:24:46;;;;;;;11.77;2.83;;;;;;;11.16;49.12;102522.75;7398828;19;20097;-46
2023/05/17 06:27:13;;;;;;;10.65;2.45;;;;;;;11.30;48.33;102515.94;7395747;19;20022;-47
2023/05/17 06:29:41;;;;;;;15.30;3.25;;;;;;;11.43;47.98;102519.72;7393477;19;20033;-47
2023/05/17 06:32:08;;;;;;;8.85;2.17;;;;;;;11.66;46.71;102529.19;7394937;19;20015;-45
2023/05/17 06:34:38;;;;;;;11.10;2.58;;;;;;;11.88;44.90;102537.81;7395325;19;20026;-51
2023/05/17 06:37:06;;;;;;;10.15;2.28;;;;;;;11.95;43.71;102541.03;7394815;19;20516;-49
2023/05/17 06:39:33;;;;;;;12.48;2.50;;;;;;;12.07;43.35;102539.56;7390934;19;20611;-46
2023/05/17 06:42:00;;;;;;;11.80;2.22;;;;;;;12.13;43.36;102540.09;7393909;19;20043;-46
2023/05/17 06:44:27;;;;;;;10.73;2.40;;;;;;;12.04;44.29;102551.19;7393040;19;20066;-47
2023/05/17 06:46:55;;;;;;;14.35;2.45;;;;;;;12.06;44.45;102562.59;7393560;19;20014;-47
2023/05/17 06:49:22;;;;;;;12.35;2.17;;;;;;;12.06;44.44;102559.09;7390786;19;20046;-46
2023/05/17 06:51:49;;;;;;;11.48;2.58;;;;;;;12.17;44.64;102570.00;7395134;19;20018;-47
2023/05/17 06:54:18;;;;;;;15.23;2.97;;;;;;;12.03;44.95;102575.16;7394116;19;20014;-48
2023/05/17 06:56:48;;;;;;;11.70;2.90;;;;;;;12.01;45.74;102582.34;7394494;19;20018;-46
2023/05/17 06:59:15;;;;;;;12.77;2.40;;;;;;;11.84;46.49;102588.50;7391776;19;20022;-47
2023/05/17 07:01:42;;;;;;;13.82;2.70;;;;;;;11.83;47.32;102595.63;7393887;19;20019;-47
2023/05/17 07:04:11;;;;;;;13.98;2.95;;;;;;;11.84;48.03;102599.97;7392113;19;20090;-46
2023/05/17 07:06:39;;;;;;;10.52;2.90;;;;;;;11.79;49.11;102598.44;7394646;19;20043;-46
2023/05/17 07:09:06;;;;;;;15.18;2.90;;;;;;;11.82;49.94;102607.09;7390444;19;20019;-49
2023/05/17 07:11:34;;;;;;;12.73;3.03;;;;;;;11.77;50.52;102613.59;7394209;19;20015;-47
2023/05/17 07:14:01;;;;;;;15.23;3.00;;;;;;;11.75;51.36;102607.47;7392593;19;20051;-46
2023/05/17 07:16:28;;;;;;;14.95;2.90;;;;;;;11.78;51.17;102604.69;7392097;19;20476;-46
2023/05/17 07:18:56;;;;;;;18.08;3.55;;;;;;;11.82;51.39;102607.09;7391225;19;20393;-48
2023/05/17 07:21:23;;;;;;;16.67;3.05;;;;;;;11.86;51.28;102603.41;7391949;19;20575;-46
2023/05/17 07:23:50;;;;;;;16.42;2.88;;;;;;;11.79;50.96;102609.94;7392846;19;20049;-46
2023/05/17 07:26:18;;;;;;;13.05;3.08;;;;;;;11.83;50.72;102606.22;7392882;19;20022;-46
2023/05/17 07:28:46;;;;;;;15.73;3.28;;;;;;;11.92;50.74;102603.09;7389947;19;20018;-46
2023/05/17 07:31:14;;;;;;;12.00;2.92;;;;;;;11.95;50.73;102616.25;7389491;19;20015;-47
2023/05/17 07:33:41;;;;;;;14.63;3.38;;;;;;;11.92;50.39;102613.72;7393496;19;20540;-46
2023/05/17 07:36:12;;;;;;;13.82;2.67;;;;;;;11.91;49.73;102614.66;7393015;19;20019;-46
2023/05/17 07:38:39;;;;;;;17.48;3.40;;;;;;;11.97;49.04;102612.63;7391245;19;20015;-45
2023/05/17 07:41:08;;;;;;;15.10;3.33;;;;;;;12.07;48.77;102614.75;7393072;19;20043;-46
2023/05/17 07:43:36;;;;;;;17.50;2.90;;;;;;;12.10;48.53;102622.59;7391103;19;20038;-46
2023/05/17 07:46:04;;;;;;;18.75;2.95;;;;;;;12.11;48.58;102626.09;7392357;19;20025;-46
2023/05/17 07:48:32;;;;;;;14.82;3.15;;;;;;;12.33;48.19;102626.72;7389453;19;20026;-46
2023/05/17 07:50:59;;;;;;;13.18;2.80;;;;;;;12.49;47.32;102623.28;7391317;19;20035;-47
2023/05/17 07:53:27;;;;;;;12.13;2.88;;;;;;;12.48;47.30;102632.16;7394121;19;20096;-47
2023/05/17 07:55:54;;;;;;;12.02;2.65;;;;;;;12.46;47.18;102637.56;7389976;19;20015;-44
2023/05/17 07:58:24;;;;;;;18.20;3.33;;;;;;;12.41;46.68;102637.81;7390888;19;20015;-45
2023/05/17 08:00:51;;;;;;;9.95;2.47;;;;;;;12.43;46.63;102637.72;7393324;19;20018;-45
2023/05/17 08:03:19;;;;;;;15.48;2.78;;;;;;;12.51;46.00;102634.69;7390392;19;20014;-46
2023/05/17 08:05:46;;;;;;;10.00;2.22;;;;;;;12.40;45.14;102638.78;7390181;19;20274;-46
2023/05/17 08:08:14;;;;;;;9.25;2.13;;;;;;;12.34;44.09;102648.84;7389889;19;20021;-46
2023/05/17 08:10:42;;;;;;;12.02;2.92;;;;;;;12.41;43.95;102659.06;7389969;19;20022;-46
2023/05/17 08:13:09;;;;;;;10.38;2.30;;;;;;;12.40;44.38;102669.75;7392060;19;20590;-45
2023/05/17 08:15:36;;;;;;;8.95;2.50;;;;;;;12.11;45.78;102669.44;7391213;19;20025;-47
2023/05/17 08:18:04;;;;;;;10.15;2.17;;;;;;;12.19;46.77;102671.72;7389595;19;20023;-51
2023/05/17 08:20:32;;;;;;;14.38;2.38;;;;;;;12.24;47.18;102669.69;7392056;19;20022;-46
2023/05/17 08:22:59;;;;;;;10.30;2.38;;;;;;;12.18;47.36;102672.66;7388603;19;20022;-46
2023/05/17 08:25:26;;;;;;;13.07;2.50;;;;;;;12.31;47.36;102670.25;7391303;19;20022;-48
2023/05/17 08:27:57;;;;;;;12.98;2.58;;;;;;;12.23;47.15;102667.13;7389630;19;20106;-47
2023/05/17 08:30:24;;;;;;;10.50;2.20;;;;;;;12.19;47.27;102666.41;7389088;19;20491;-47
2023/05/17 08:32:57;;;;;;;10.25;2.25;;;;;;;12.22;47.35;102665.41;7391666;19;20034;-46
2023/05/17 08:35:26;;;;;;;10.50;2.10;;;;;;;12.17;47.29;102661.19;7391099;19;20022;-46
2023/05/17 08:37:55;;;;;;;10.75;2.20;;;;;;;12.18;46.72;102659.38;7391524;19;20014;-45
2023/05/17 08:40:22;;;;;;;10.70;2.00;;;;;;;12.28;46.40;102673.03;7390368;19;20010;-46
2023/05/17 08:42:50;;;;;;;11.32;2.10;;;;;;;12.37;46.00;102676.13;7386345;19;20479;-45
2023/05/17 08:45:18;;;;;;;10.68;2.30;;;;;;;12.37;45.87;102673.47;7389263;19;20010;-46
2023/05/17 08:47:45;;;;;;;11.98;1.90;;;;;;;12.29;45.66;102670.34;7390818;19;20393;-44
2023/05/17 08:50:14;;;;;;;11.18;2.15;;;;;;;12.52;45.58;102676.28;7388252;19;20026;-45
2023/05/17 08:52:45;;;;;;;13.65;2.40;;;;;;;12.73;43.61;102685.78;7389846;19;20026;-48
2023/05/17 08:55:15;;;;;;;10.70;1.80;;;;;;;12.82;43.10;102688.00;7388745;19;20015;-48
2023/05/17 08:57:44;;;;;;;8.93;1.90;;;;;;;12.88;42.50;102690.31;7388990;19;20025;-50
2023/05/17 09:00:15;;;;;;;12.50;2.00;;;;;;;12.96;42.33;102695.22;7387617;19;20487;-47
2023/05/17 09:02:42;;;;;;;8.43;1.73;;;;;;;12.95;42.44;102700.66;7390185;19;20014;-49
2023/05/17 09:05:12;;;;;;;8.32;2.03;;;;;;;12.93;42.63;102700.69;7388076;19;20056;-49
2023/05/17 09:07:41;;;;;;;11.98;2.13;;;;;;;12.87;42.40;102701.03;7389193;19;20026;-47
2023/05/17 09:10:08;;;;;;;6.80;1.70;;;;;;;12.81;43.02;102719.97;7389834;19;20515;-48
2023/05/17 09:12:36;;;;;;;9.73;2.35;;;;;;;12.84;43.16;102719.81;7390934;19;20018;-46
2023/05/17 09:15:17;;;;;;;10.80;2.38;;;;;;;12.69;43.23;102716.13;7389547;19;20014;-46
2023/05/17 09:17:54;;;;;;;8.35;2.05;;;;;;;12.60;43.66;102712.16;7387664;19;20025;-47
2023/05/17 09:20:23;;;;;;;11.65;2.28;;;;;;;12.81;43.97;102718.16;7388011;19;20039;-47
2023/05/17 09:22:51;;;;;;;8.98;1.90;;;;;;;13.05;43.04;102712.50;7389079;19;20488;-45
2023/05/17 09:25:23;;;;;;;10.18;2.17;;;;;;;13.24;43.08;102712.41;7389763;19;20029;-47
2023/05/17 09:27:56;;;;;;;9.75;2.20;;;;;;;13.32;42.68;102707.56;7387059;19;20014;-45
2023/05/17 09:30:28;;;;;;;12.98;2.53;;;;;;;13.35;42.42;102712.69;7389831;19;20035;-48
2023/05/17 09:32:57;;;;;;;11.43;1.98;;;;;;;13.18;42.66;102709.13;7390260;19;20015;-46
2023/05/17 09:35:30;;;;;;;9.75;2.08;;;;;;;13.18;42.57;102711.78;7388011;19;20029;-48
2023/05/17 09:38:06;;;;;;;12.05;2.15;;;;;;;13.27;42.76;102718.44;7388867;19;20508;-50
2023/05/17 09:40:42;;;;;;;8.13;1.98;;;;;;;13.36;42.13;102712.63;7387095;19;20483;-51
2023/05/17 09:43:12;;;;;;;13.32;2.40;;;;;;;13.35;42.55;102718.03;7386494;19;20046;-48
2023/05/17 09:45:40;;;;;;;11.07;2.20;;;;;;;13.31;43.14;102716.47;7388841;19;20484;-48
2023/05/17 09:48:15;;;;;;;10.63;2.10;;;;;;;13.14;43.48;102714.69;7387967;19;20015;-47
2023/05/17 09:50:45;;;;;;;9.43;1.83;;;;;;;13.02;44.42;102715.34;7388843;19;20014;-48
2023/05/17 09:53:31;;;;;;;13.20;2.55;;;;;;;13.02;44.08;102731.31;7391172;19;20027;-45
2023/05/17 09:56:00;;;;;;;7.25;1.98;;;;;;;12.98;44.22;102719.97;7396458;19;20024;-46
2023/05/17 09:58:30;;;;;;;9.82;2.40;;;;;;;13.26;44.14;102719.38;7394741;19;20385;-46
2023/05/17 10:01:00;;;;;;;10.85;2.50;;;;;;;13.49;44.02;102715.47;7394995;19;20154;-46
2023/05/17 10:03:31;;;;;;;11.00;2.25;;;;;;;13.41;44.24;102709.72;7394401;19;20037;-46
2023/05/17 10:06:01;;;;;;;11.00;2.10;;;;;;;13.38;45.12;102721.38;7396244;19;20023;-46
2023/05/17 10:08:28;;;;;;;8.70;2.05;;;;;;;13.49;44.74;102714.63;7394501;19;20026;-46
2023/05/17 10:11:04;;;;;;;12.90;2.25;;;;;;;13.49;43.58;102720.81;7396170;19;20022;-45
2023/05/17 10:13:36;;;;;;;9.02;2.00;;;;;;;13.16;44.75;102728.75;7396890;19;20114;-46
2023/05/17 10:16:03;;;;;;;7.30;1.85;;;;;;;12.83;45.65;102720.75;7395684;19;20018;-45
2023/05/17 10:18:32;;;;;;;9.48;1.95;;;;;;;12.90;47.04;102735.47;7392657;19;20025;-45
2023/05/17 10:21:00;;;;;;;7.88;2.38;;;;;;;12.96;47.57;102732.47;7395922;19;20022;-45
2023/05/17 10:23:28;;;;;;;9.18;2.63;;;;;;;12.74;46.99;102727.38;7394636;19;20038;-46
2023/05/17 10:25:56;;;;;;;10.93;2.28;;;;;;;12.92;45.91;102726.44;7393524;19;20098;-46
2023/05/17 10:28:25;;;;;;;8.98;1.90;;;;;;;13.26;44.21;102716.72;7393893;19;20023;-49
2023/05/17 10:30:53;;;;;;;8.38;1.73;;;;;;;13.36;43.79;102715.28;7395613;19;20019;-48
2023/05/17 10:33:21;;;;;;;7.65;2.00;;;;;;;13.43;43.51;102709.63;7396380;19;20018;-46
2023/05/17 10:35:51;;;;;;;8.57;1.80;;;;;;;13.40;43.94;102716.00;7394853;19;20413;-46
2023/05/17 10:38:23;;;;;;;8.82;2.00;;;;;;;13.38;43.89;102710.72;7392491;19;20508;-45
2023/05/17 10:41:05;;;;;;;9.13;2.10;;;;;;;13.43;43.95;102721.13;7394214;19;20021;-45
2023/05/17 10:43:36;;;;;;;8.57;1.75;;;;;;;13.50;44.12;102724.31;7393494;19;20015;-45
2023/05/17 10:46:13;;;;;;;11.52;1.90;;;;;;;13.48;44.14;102716.44;7393783;19;20052;-48
2023/05/17 10:48:43;;;;;;;8.68;2.17;;;;;;;13.81;43.25;102708.41;7391064;19;20018;-45
2023/05/17 10:51:10;;;;;;;12.82;2.20;;;;;;;13.95;43.10;102704.94;7393233;19;20022;-46
2023/05/17 10:54:23;;;;;;;7.70;1.98;;;;;;;13.70;43.50;102710.78;7394082;19;20051;-45
2023/05/17 10:56:53;;;;;;;;;;;;;;;13.23;45.02;102718.66;7393295;19;20039;-45
2023/05/17 10:59:25;;;;;;;11.38;2.10;;;;;;;13.29;45.74;102729.88;7390032;19;19922;-45
2023/05/17 11:02:06;;;;;;;9.13;2.37;;;;;;;13.32;46.67;102735.03;7393181;19;20019;-45
2023/05/17 11:04:36;;;;;;;11.48;2.58;;;;;;;13.23;46.64;102739.94;7393072;19;20276;-45
2023/05/17 11:07:16;;;;;;;12.23;2.75;;;;;;;13.24;46.34;102731.03;7394211;19;20039;-46
2023/05/17 11:09:54;;;;;;;9.48;2.20;;;;;;;13.35;45.96;102728.66;7393996;19;20039;-47
2023/05/17 11:12:40;;;;;;;10.65;2.45;;;;;;;13.46;45.46;102731.59;7393989;19;20018;-45
2023/05/17 11:15:21;;;;;;;13.18;2.35;;;;;;;13.40;45.75;102735.47;7391834;19;20014;-45
2023/05/17 11:17:52;;;;;;;11.05;2.53;;;;;;;13.58;44.95;102714.09;7391708;19;20026;-43
2023/05/17 11:20:26;;;;;;;13.93;2.58;;;;;;;13.77;44.60;102720.13;7392892;19;20038;-45
2023/05/17 11:23:05;;;;;;;12.85;2.50;;;;;;;13.71;44.38;102709.84;7393362;19;20023;-46
2023/05/17 11:25:35;;;;;;;10.98;2.25;;;;;;;13.77;43.96;102735.25;7393900;19;20035;-45
2023/05/17 11:28:31;;;;;;;12.98;2.55;;;;;;;14.03;41.75;102721.34;7393090;19;20092;-46
2023/05/17 11:31:02;;;;;;;13.65;2.10;;;;;;;14.03;41.56;102731.13;7393003;19;20025;-45